Time;durP1;ratioP1;P1;durP2;ratioP2;P2;SDS_P1;SDS_P2;PMS_P1;PMS_P2;Temp;Humidity;BMP_temperature;BMP_pressure;BME280_temperature;BME280_humidity;BME280_pressure;Samples;Min_cycle;Max_cycle;Signal;HPM_P1;HPM_P2
2021/06/11 00:01:30;;;;;;;5.83;4.60;;;17.30;85.50;;;;;;5054073;28;20209;-81
2021/06/11 00:03:58;;;;;;;5.23;4.57;;;17.30;85.70;;;;;;5059603;28;20705;-83
2021/06/11 00:06:26;;;;;;;5.37;4.87;;;17.20;85.80;;;;;;5050401;28;20248;-83
2021/06/11 00:08:55;;;;;;;5.63;5.23;;;17.20;85.80;;;;;;5057717;28;20205;-83
2021/06/11 00:11:23;;;;;;;5.40;4.90;;;17.10;85.80;;;;;;5053381;28;21134;-81
2021/06/11 00:13:52;;;;;;;5.43;4.87;;;17.00;86.20;;;;;;5054052;28;20413;-83
2021/06/11 00:16:20;;;;;;;5.20;4.70;;;17.00;86.30;;;;;;5052507;28;20819;-82
2021/06/11 00:18:48;;;;;;;6.00;4.73;;;16.90;86.60;;;;;;5045595;28;20623;-83
2021/06/11 00:21:16;;;;;;;5.80;4.97;;;16.90;86.70;;;;;;5051980;28;20286;-81
2021/06/11 00:23:44;;;;;;;5.57;5.07;;;16.90;86.70;;;;;;5046360;28;20522;-81
2021/06/11 00:26:14;;;;;;;5.40;4.90;;;16.90;86.80;;;;;;5052228;28;20225;-81
2021/06/11 00:28:42;;;;;;;5.87;4.50;;;16.80;87.00;;;;;;5039994;28;20689;-84
2021/06/11 00:31:10;;;;;;;5.57;5.07;;;16.80;87.00;;;;;;5053233;28;20208;-82
2021/06/11 00:33:39;;;;;;;5.40;4.90;;;16.70;87.10;;;;;;5054369;28;20205;-82
2021/06/11 00:36:07;;;;;;;5.60;5.10;;;16.70;87.30;;;;;;5055965;28;20201;-85
2021/06/11 00:38:35;;;;;;;6.20;5.50;;;16.60;87.70;;;;;;5058770;28;20209;-84
2021/06/11 00:41:03;;;;;;;5.63;5.13;;;16.60;87.60;;;;;;5055537;28;20209;-80
2021/06/11 00:43:33;;;;;;;5.00;4.60;;;16.60;88.00;;;;;;5051287;28;20205;-82
2021/06/11 00:46:01;;;;;;;5.00;4.50;;;16.50;87.80;;;;;;5048987;28;20240;-81
2021/06/11 00:48:29;;;;;;;5.70;5.13;;;16.50;87.90;;;;;;5044845;28;20658;-82
2021/06/11 00:50:57;;;;;;;5.60;5.03;;;16.50;88.30;;;;;;5047565;28;20746;-81
2021/06/11 00:53:25;;;;;;;6.33;5.40;;;16.40;88.30;;;;;;5048275;28;20201;-83
2021/06/11 00:55:53;;;;;;;5.63;5.07;;;16.40;89.00;;;;;;5051078;28;20872;-83
2021/06/11 00:58:21;;;;;;;5.97;5.47;;;16.30;88.90;;;;;;5054156;28;20378;-84
2021/06/11 01:00:51;;;;;;;5.83;5.33;;;16.30;88.80;;;;;;5045932;28;20576;-83
2021/06/11 01:03:19;;;;;;;6.17;5.40;;;16.20;88.90;;;;;;5048383;28;20842;-82
2021/06/11 01:05:47;;;;;;;5.80;5.30;;;16.20;89.30;;;;;;5049214;28;20221;-82
2021/06/11 01:08:17;;;;;;;6.53;5.93;;;16.10;89.20;;;;;;5043420;28;20387;-82
2021/06/11 01:10:48;;;;;;;8.77;6.00;;;16.10;89.60;;;;;;5045799;28;20209;-83
2021/06/11 01:13:17;;;;;;;5.53;5.13;;;16.10;89.40;;;;;;5047456;28;20458;-82
2021/06/11 01:15:48;;;;;;;6.43;5.47;;;16.10;89.40;;;;;;5045429;28;21303;-83
2021/06/11 01:18:19;;;;;;;5.97;5.43;;;16.10;89.40;;;;;;5043852;28;20266;-83
2021/06/11 01:20:47;;;;;;;6.53;5.90;;;16.10;89.40;;;;;;5046618;28;20373;-82
2021/06/11 01:23:40;;;;;;;6.07;5.47;;;16.10;89.50;;;;;;5046125;28;20613;-82
2021/06/11 01:26:28;;;;;;;6.47;5.50;;;16.00;89.70;;;;;;5057145;28;20339;-83
2021/06/11 01:28:59;;;;;;;6.00;5.37;;;15.90;89.80;;;;;;5044756;28;20901;-83
2021/06/11 01:31:30;;;;;;;6.77;5.57;;;15.80;90.00;;;;;;5051796;28;20284;-83
2021/06/11 01:34:02;;;;;;;6.63;5.77;;;15.80;90.20;;;;;;5047536;28;20209;-84
2021/06/11 01:36:34;;;;;;;6.00;5.50;;;15.70;90.30;;;;;;5048262;28;20324;-83
2021/06/11 01:39:05;;;;;;;6.13;5.53;;;15.70;90.60;;;;;;5047343;28;20544;-83
2021/06/11 01:41:37;;;;;;;5.83;5.30;;;15.60;90.40;;;;;;5050278;28;20672;-83
2021/06/11 01:44:08;;;;;;;6.90;6.30;;;15.50;90.40;;;;;;5050409;28;20395;-83
2021/06/11 01:46:39;;;;;;;7.73;6.27;;;15.50;90.80;;;;;;5047492;28;20261;-82
2021/06/11 01:49:08;;;;;;;6.90;6.30;;;15.50;90.80;;;;;;5047740;28;20205;-84
2021/06/11 01:51:38;;;;;;;7.60;6.37;;;15.40;90.90;;;;;;5049445;28;20243;-83
2021/06/11 01:54:10;;;;;;;6.47;5.97;;;15.40;91.10;;;;;;5044521;28;20312;-82
2021/06/11 01:56:40;;;;;;;6.97;6.37;;;15.50;91.10;;;;;;5046384;28;20213;-83
2021/06/11 01:59:09;;;;;;;6.90;6.20;;;15.60;90.90;;;;;;5046409;28;20209;-83
2021/06/11 02:01:37;;;;;;;7.30;6.47;;;15.80;90.40;;;;;;5050062;28;20197;-82
2021/06/11 02:04:06;;;;;;;7.77;5.70;;;16.00;90.20;;;;;;5052598;28;20683;-82
2021/06/11 02:06:35;;;;;;;5.97;5.47;;;16.10;89.70;;;;;;5049277;28;20222;-82
2021/06/11 02:09:04;;;;;;;5.83;5.33;;;16.20;89.40;;;;;;5071230;28;20232;-83
2021/06/11 02:11:34;;;;;;;9.03;6.03;;;16.20;89.10;;;;;;5081308;28;20197;-82
2021/06/11 02:14:04;;;;;;;6.03;5.43;;;16.20;89.20;;;;;;5074220;28;20197;-81
2021/06/11 02:16:33;;;;;;;6.10;5.50;;;16.10;89.30;;;;;;5078809;28;20182;-83
2021/06/11 02:19:02;;;;;;;5.97;5.37;;;16.00;89.70;;;;;;5064509;28;20726;-82
2021/06/11 02:21:31;;;;;;;6.33;5.73;;;15.90;90.00;;;;;;5061874;28;20274;-82
2021/06/11 02:24:01;;;;;;;5.97;5.37;;;15.90;90.10;;;;;;5054500;28;20205;-82
2021/06/11 02:26:30;;;;;;;6.53;5.63;;;15.80;90.00;;;;;;5052994;28;20529;-81
2021/06/11 02:28:59;;;;;;;5.77;5.27;;;15.80;90.30;;;;;;5052042;28;20235;-81
2021/06/11 02:31:28;;;;;;;6.70;6.10;;;15.70;90.50;;;;;;5058753;28;20495;-82
2021/06/11 02:33:56;;;;;;;9.17;6.13;;;15.70;90.60;;;;;;5062697;28;20197;-82
2021/06/11 02:36:24;;;;;;;9.13;5.87;;;15.60;90.70;;;;;;5062690;28;20216;-84
2021/06/11 02:38:52;;;;;;;6.60;5.93;;;15.60;90.60;;;;;;5058427;28;20185;-81
2021/06/11 02:41:24;;;;;;;6.17;5.67;;;15.60;90.80;;;;;;5055099;28;20193;-83
2021/06/11 02:43:53;;;;;;;8.37;6.20;;;15.50;90.90;;;;;;5052338;28;20212;-82
2021/06/11 02:46:26;;;;;;;6.77;6.07;;;15.50;91.10;;;;;;5049239;28;20784;-84
2021/06/11 02:48:57;;;;;;;6.97;6.33;;;15.50;91.00;;;;;;5040919;28;20201;-83
2021/06/11 02:51:32;;;;;;;7.87;6.90;;;15.50;91.20;;;;;;5054055;28;20356;-82
2021/06/11 02:54:03;;;;;;;7.40;6.63;;;15.50;91.50;;;;;;5063436;28;20216;-82
2021/06/11 02:56:41;;;;;;;8.97;5.93;;;15.50;91.60;;;;;;5074199;28;20190;-82
2021/06/11 02:59:13;;;;;;;7.70;6.90;;;15.50;91.50;;;;;;5051048;28;20216;-80
2021/06/11 03:01:45;;;;;;;7.43;6.60;;;15.60;91.50;;;;;;5057709;28;20270;-82
2021/06/11 03:04:16;;;;;;;9.43;6.43;;;15.70;91.50;;;;;;5055229;28;20205;-82
2021/06/11 03:06:45;;;;;;;6.90;6.20;;;15.70;91.40;;;;;;5048602;28;20328;-82
2021/06/11 03:09:18;;;;;;;7.70;6.50;;;15.80;91.20;;;;;;5049316;28;20377;-83
2021/06/11 03:11:47;;;;;;;6.43;5.93;;;15.90;91.10;;;;;;5049386;28;20212;-84
2021/06/11 03:14:17;;;;;;;7.73;6.40;;;15.90;91.00;;;;;;5053703;28;20206;-83
2021/06/11 03:16:49;;;;;;;6.80;6.20;;;16.00;90.90;;;;;;5053359;28;20577;-82
2021/06/11 03:19:20;;;;;;;8.27;6.20;;;16.10;90.80;;;;;;5052536;28;20209;-82
2021/06/11 03:21:51;;;;;;;7.47;6.10;;;16.10;90.40;;;;;;5056071;28;20687;-84
2021/06/11 03:24:27;;;;;;;6.90;6.17;;;16.20;90.20;;;;;;5049082;28;20202;-83
2021/06/11 03:27:02;;;;;;;7.50;6.20;;;16.20;90.10;;;;;;5043954;28;20797;-84
2021/06/11 03:29:34;;;;;;;7.57;6.13;;;16.20;90.10;;;;;;5048138;28;20490;-84
2021/06/11 03:32:04;;;;;;;8.03;6.33;;;16.20;90.00;;;;;;5046385;28;20482;-82
2021/06/11 03:34:37;;;;;;;11.60;6.13;;;16.30;89.50;;;;;;5047719;28;20295;-82
2021/06/11 03:37:10;;;;;;;6.97;6.07;;;16.30;89.60;;;;;;5044051;28;20279;-82
2021/06/11 03:39:42;;;;;;;7.07;6.27;;;16.30;89.40;;;;;;5054754;28;20548;-83
2021/06/11 03:42:12;;;;;;;6.77;5.37;;;16.30;89.30;;;;;;5052714;28;20797;-83
2021/06/11 03:44:43;;;;;;;6.47;5.83;;;16.30;88.90;;;;;;5046550;28;20633;-84
2021/06/11 03:47:13;;;;;;;6.90;6.13;;;16.40;88.60;;;;;;5044461;28;20519;-82
2021/06/11 03:49:45;;;;;;;6.23;5.57;;;16.40;88.50;;;;;;5045722;28;20240;-82
2021/06/11 03:52:22;;;;;;;7.17;5.97;;;16.50;88.50;;;;;;5046733;28;20193;-82
2021/06/11 03:54:52;;;;;;;7.30;6.17;;;16.50;89.10;;;;;;5046712;28;20201;-83
2021/06/11 03:57:21;;;;;;;6.60;5.77;;;16.60;89.20;;;;;;5044669;28;20201;-81
2021/06/11 03:59:51;;;;;;;6.03;5.37;;;16.70;88.70;;;;;;5046518;28;20988;-82
2021/06/11 04:02:19;;;;;;;5.60;5.00;;;16.80;87.50;;;;;;5046080;28;20593;-82
2021/06/11 04:04:48;;;;;;;5.97;5.37;;;17.00;87.20;;;;;;5051472;28;20769;-82
2021/06/11 04:07:22;;;;;;;10.33;5.20;;;17.10;86.90;;;;;;5043542;28;20225;-84
2021/06/11 04:09:58;;;;;;;5.60;5.10;;;17.30;86.20;;;;;;5055010;28;20220;-82
2021/06/11 04:12:37;;;;;;;5.63;5.13;;;17.50;86.20;;;;;;5052419;28;20205;-81
2021/06/11 04:15:07;;;;;;;5.63;5.13;;;17.70;86.00;;;;;;5054975;28;20205;-83
2021/06/11 04:17:40;;;;;;;5.50;5.00;;;17.80;85.90;;;;;;5047463;28;20270;-84
2021/06/11 04:20:19;;;;;;;6.73;5.50;;;17.90;85.70;;;;;;5049251;28;20239;-84
2021/06/11 04:22:50;;;;;;;5.80;5.30;;;18.00;85.10;;;;;;5041535;28;20528;-85
2021/06/11 04:25:20;;;;;;;6.47;5.60;;;18.10;85.30;;;;;;5049125;28;20248;-85
2021/06/11 04:27:51;;;;;;;5.83;5.23;;;18.20;85.10;;;;;;5046709;28;20308;-84
2021/06/11 04:30:20;;;;;;;5.73;5.23;;;18.20;84.60;;;;;;5051395;28;20284;-84
2021/06/11 04:32:48;;;;;;;7.03;5.83;;;18.10;84.90;;;;;;5058580;28;20611;-84
2021/06/11 04:35:21;;;;;;;6.70;5.10;;;18.00;85.00;;;;;;5046461;28;20859;-84
2021/06/11 04:37:49;;;;;;;7.10;5.70;;;18.00;85.20;;;;;;5044197;28;20229;-83
2021/06/11 04:40:18;;;;;;;5.60;5.17;;;17.90;85.00;;;;;;5046795;28;20203;-85
2021/06/11 04:42:46;;;;;;;6.30;5.30;;;17.90;84.80;;;;;;5051045;28;20560;-84
2021/06/11 04:45:15;;;;;;;5.70;5.03;;;17.90;85.00;;;;;;5043887;28;20225;-84
2021/06/11 04:47:43;;;;;;;6.10;5.30;;;17.90;85.00;;;;;;5050771;28;20793;-83
2021/06/11 04:50:12;;;;;;;7.80;5.60;;;17.80;85.00;;;;;;5045652;28;20209;-84
2021/06/11 04:52:42;;;;;;;6.83;5.20;;;17.80;85.00;;;;;;5045787;28;20251;-83
2021/06/11 04:55:10;;;;;;;7.17;5.73;;;17.80;85.20;;;;;;5047543;28;20604;-83
2021/06/11 04:57:38;;;;;;;7.03;5.13;;;17.80;85.10;;;;;;5042752;28;20209;-84
2021/06/11 05:00:09;;;;;;;5.80;5.30;;;17.80;85.10;;;;;;5047875;28;20213;-84
2021/06/11 05:02:37;;;;;;;7.10;5.63;;;17.90;85.00;;;;;;5062002;28;21158;-84
2021/06/11 05:05:06;;;;;;;7.20;5.80;;;18.00;85.10;;;;;;5055411;28;20277;-82
2021/06/11 05:07:36;;;;;;;6.67;5.83;;;17.90;84.80;;;;;;5052808;28;20314;-86
2021/06/11 05:10:07;;;;;;;5.73;5.23;;;17.90;85.00;;;;;;5061347;28;20193;-85
2021/06/11 05:12:39;;;;;;;6.77;5.77;;;17.90;85.10;;;;;;5056696;28;20237;-84
2021/06/11 05:15:09;;;;;;;10.03;5.63;;;18.00;85.00;;;;;;5045391;28;20488;-86
2021/06/11 05:17:37;;;;;;;6.93;5.30;;;18.20;84.70;;;;;;5041218;28;20642;-85
2021/06/11 05:20:07;;;;;;;7.83;5.70;;;18.30;84.70;;;;;;5041660;28;20214;-83
2021/06/11 05:22:35;;;;;;;6.67;5.83;;;18.50;84.50;;;;;;5044304;28;20201;-83
2021/06/11 05:25:05;;;;;;;7.87;6.00;;;18.60;84.50;;;;;;5048813;28;20197;-84
2021/06/11 05:27:34;;;;;;;6.00;5.47;;;18.70;84.50;;;;;;5041427;28;20225;-83
2021/06/11 05:30:02;;;;;;;8.10;5.80;;;18.90;84.40;;;;;;5046306;28;20611;-85
2021/06/11 05:32:30;;;;;;;6.37;5.77;;;19.00;84.50;;;;;;5044405;28;20743;-85
2021/06/11 05:34:59;;;;;;;7.27;5.53;;;19.20;84.00;;;;;;5048047;28;20209;-84
2021/06/11 05:37:26;;;;;;;7.87;5.67;;;19.50;83.90;;;;;;5042956;28;20202;-84
2021/06/11 05:39:54;;;;;;;8.03;5.73;;;19.80;83.40;;;;;;5045847;28;20205;-83
2021/06/11 05:42:24;;;;;;;6.63;5.73;;;19.70;83.40;;;;;;5045532;28;20422;-84
2021/06/11 05:44:52;;;;;;;7.40;6.23;;;20.00;83.30;;;;;;5043246;28;21024;-84
2021/06/11 05:47:20;;;;;;;7.93;6.20;;;20.30;82.80;;;;;;5042882;28;20730;-83
2021/06/11 05:49:49;;;;;;;6.80;6.10;;;20.40;82.70;;;;;;5043588;28;20201;-86
2021/06/11 05:52:17;;;;;;;9.03;5.73;;;20.30;82.60;;;;;;5045374;28;20201;-85
2021/06/11 05:54:45;;;;;;;9.93;6.00;;;20.50;82.90;;;;;;5052818;28;20205;-86
2021/06/11 05:57:14;;;;;;;8.00;5.80;;;20.60;82.60;;;;;;5043044;28;20267;-84
2021/06/11 05:59:43;;;;;;;8.93;5.70;;;20.50;82.50;;;;;;5048432;28;20312;-86
2021/06/11 06:02:12;;;;;;;8.13;5.80;;;20.60;82.70;;;;;;5045787;28;20467;-86
2021/06/11 06:04:40;;;;;;;7.93;5.50;;;20.70;82.50;;;;;;5041744;28;20205;-85
2021/06/11 06:07:09;;;;;;;9.00;6.20;;;20.70;82.60;;;;;;5043021;28;20376;-87
2021/06/11 06:09:37;;;;;;;9.37;6.40;;;20.60;82.70;;;;;;5044565;28;20812;-84
2021/06/11 06:12:06;;;;;;;7.60;5.90;;;20.50;82.90;;;;;;5046868;28;20209;-86
2021/06/11 06:14:34;;;;;;;7.40;6.63;;;20.30;82.80;;;;;;5038850;28;20205;-84
2021/06/11 06:17:04;;;;;;;10.17;5.90;;;20.10;83.10;;;;;;5034549;28;21051;-85
2021/06/11 06:19:33;;;;;;;6.83;6.20;;;20.10;83.20;;;;;;5052682;28;20213;-85
2021/06/11 06:22:01;;;;;;;7.37;6.30;;;20.10;82.90;;;;;;5055911;28;20206;-84
2021/06/11 06:24:29;;;;;;;10.43;6.10;;;20.30;83.10;;;;;;5038088;28;20298;-87
2021/06/11 06:26:57;;;;;;;6.97;5.83;;;20.70;82.90;;;;;;5025273;28;20344;-83
2021/06/11 06:29:25;;;;;;;7.88;6.07;;;21.20;82.60;;;;;;5035794;28;20233;-83
2021/06/11 06:31:53;;;;;;;10.70;6.13;;;21.80;82.10;;;;;;5033810;28;20705;-86
2021/06/11 06:34:25;;;;;;;6.95;6.10;;;22.00;81.60;;;;;;5040042;28;20228;-87
2021/06/11 06:36:53;;;;;;;8.60;6.50;;;21.80;81.40;;;;;;5038576;28;21397;-85
2021/06/11 06:39:31;;;;;;;7.38;6.05;;;21.60;81.30;;;;;;5050024;28;20209;-85
2021/06/11 06:41:59;;;;;;;6.50;5.45;;;21.90;81.70;;;;;;5065483;28;20593;-86
2021/06/11 06:44:27;;;;;;;8.10;6.00;;;21.90;81.50;;;;;;5067161;28;20334;-85
2021/06/11 06:46:56;;;;;;;7.53;5.70;;;22.00;81.50;;;;;;5040820;28;20263;-86
2021/06/11 06:49:26;;;;;;;9.07;5.50;;;21.90;81.20;;;;;;5046742;28;20201;-85
2021/06/11 06:51:54;;;;;;;7.18;5.93;;;21.90;81.20;;;;;;5040889;28;20667;-85
2021/06/11 06:54:22;;;;;;;7.53;6.25;;;21.80;81.30;;;;;;5041447;28;20229;-84
2021/06/11 06:56:50;;;;;;;9.18;6.53;;;21.80;81.40;;;;;;5031144;28;20466;-84
2021/06/11 06:59:20;;;;;;;8.07;5.97;;;21.90;81.40;;;;;;5047257;28;21432;-86
2021/06/11 07:01:49;;;;;;;8.52;6.25;;;22.20;81.40;;;;;;5042783;28;20698;-86
2021/06/11 07:04:18;;;;;;;7.43;5.82;;;22.20;81.20;;;;;;5046836;28;20212;-84
2021/06/11 07:06:49;;;;;;;8.10;6.07;;;22.20;80.90;;;;;;5045096;28;20205;-83
2021/06/11 07:09:18;;;;;;;7.93;5.72;;;22.00;81.00;;;;;;5049067;28;20205;-84
2021/06/11 07:11:48;;;;;;;9.27;6.43;;;22.10;81.40;;;;;;5046354;28;20837;-84
2021/06/11 07:14:17;;;;;;;7.80;6.18;;;22.00;81.60;;;;;;5047536;28;20206;-81
2021/06/11 07:16:48;;;;;;;10.35;5.93;;;21.90;81.50;;;;;;5028217;28;20206;-81
2021/06/11 07:19:17;;;;;;;9.65;6.10;;;21.80;81.30;;;;;;5032078;28;20212;-85
2021/06/11 07:21:46;;;;;;;9.77;5.97;;;21.70;81.50;;;;;;5042625;28;20239;-85
2021/06/11 07:24:15;;;;;;;9.73;5.80;;;21.50;81.40;;;;;;5036540;28;20198;-85
2021/06/11 07:26:43;;;;;;;9.93;5.68;;;21.40;81.50;;;;;;5029754;28;20686;-83
2021/06/11 07:29:11;;;;;;;7.13;6.10;;;21.40;81.80;;;;;;5045869;28;20221;-85
2021/06/11 07:31:40;;;;;;;10.48;6.47;;;21.40;81.70;;;;;;5048610;28;20335;-84
2021/06/11 07:34:08;;;;;;;8.23;5.95;;;21.20;81.60;;;;;;5052170;28;20202;-83
2021/06/11 07:36:36;;;;;;;6.72;5.80;;;21.30;82.20;;;;;;5051071;28;20527;-82
2021/06/11 07:39:06;;;;;;;7.95;6.35;;;21.40;82.00;;;;;;5052726;28;20367;-82
2021/06/11 07:41:34;;;;;;;7.80;5.65;;;21.50;81.90;;;;;;5055741;28;20198;-86
2021/06/11 07:44:02;;;;;;;8.45;5.88;;;21.70;81.80;;;;;;5049647;28;20726;-84
2021/06/11 07:46:36;;;;;;;8.30;5.47;;;22.10;81.30;;;;;;5044818;28;20878;-85
2021/06/11 07:49:04;;;;;;;5.93;5.35;;;22.20;80.70;;;;;;5039353;28;20236;-85
2021/06/11 07:51:32;;;;;;;7.57;6.03;;;22.10;80.60;;;;;;5048579;28;20202;-82
2021/06/11 07:54:00;;;;;;;6.28;5.65;;;22.10;81.00;;;;;;5039217;28;20290;-86
2021/06/11 07:56:30;;;;;;;8.88;5.60;;;22.40;80.70;;;;;;5043411;28;20216;-87
2021/06/11 07:59:00;;;;;;;5.90;5.40;;;22.80;80.50;;;;;;5038423;28;20420;-85
2021/06/11 08:01:28;;;;;;;6.85;6.13;;;23.30;80.50;;;;;;5050203;28;20975;-86
2021/06/11 08:03:57;;;;;;;6.32;5.65;;;23.70;79.70;;;;;;5050402;28;20233;-87
2021/06/11 08:06:25;;;;;;;6.07;5.50;;;23.90;79.00;;;;;;5053206;28;20201;-85
2021/06/11 08:08:53;;;;;;;6.80;5.47;;;23.80;79.10;;;;;;5053001;28;20579;-83
2021/06/11 08:11:22;;;;;;;6.38;5.32;;;23.90;78.90;;;;;;5051905;28;20209;-85
2021/06/11 08:13:54;;;;;;;6.47;5.80;;;23.90;78.40;;;;;;5048353;28;20205;-86
2021/06/11 08:16:23;;;;;;;5.75;5.25;;;24.10;78.20;;;;;;5044169;28;20516;-85
2021/06/11 08:18:53;;;;;;;6.30;5.30;;;24.10;78.00;;;;;;5056587;28;20496;-89
2021/06/11 08:21:21;;;;;;;8.02;5.75;;;24.30;77.90;;;;;;5044048;28;20362;-84
2021/06/11 08:23:49;;;;;;;8.32;5.18;;;24.70;78.10;;;;;;5055993;28;20291;-84
2021/06/11 08:26:17;;;;;;;7.30;5.38;;;24.80;78.10;;;;;;5032084;28;20577;-85
2021/06/11 08:28:49;;;;;;;7.72;5.55;;;25.00;77.30;;;;;;5035652;28;20221;-82
2021/06/11 08:31:19;;;;;;;9.02;5.70;;;24.50;77.30;;;;;;5032657;28;21129;-83
2021/06/11 08:33:47;;;;;;;7.03;5.20;;;24.40;77.70;;;;;;5046888;28;20205;-86
2021/06/11 08:36:16;;;;;;;8.02;5.60;;;23.80;77.80;;;;;;5050670;28;20201;-82
2021/06/11 08:38:45;;;;;;;5.15;4.63;;;23.60;78.00;;;;;;5040979;28;20299;-82
2021/06/11 08:41:29;;;;;;;5.93;4.68;;;23.30;78.40;;;;;;5018207;28;20228;-83
2021/06/11 08:43:59;;;;;;;8.70;5.20;;;23.50;77.80;;;;;;5037716;28;21405;-85
2021/06/11 08:46:29;;;;;;;8.57;5.65;;;23.90;77.90;;;;;;5036648;28;20447;-83
2021/06/11 08:48:58;;;;;;;5.95;5.00;;;24.20;77.60;;;;;;5042495;28;20225;-83
2021/06/11 08:51:27;;;;;;;6.65;5.47;;;24.70;78.00;;;;;;5045310;28;20639;-83
2021/06/11 08:54:03;;;;;;;7.80;5.03;;;25.10;77.10;;;;;;5051633;28;20659;-81
2021/06/11 09:00:07;;;;;;;5.85;4.97;;;24.50;76.40;;;;;;5057260;28;20438;-81
2021/06/11 09:03:34;;;;;;;6.25;5.15;;;24.40;76.70;;;;;;5056311;28;20228;-85
2021/06/11 09:06:12;;;;;;;5.63;4.88;;;24.20;77.00;;;;;;5045241;28;20562;-83
2021/06/11 09:09:10;;;;;;;4.90;4.40;;;24.20;76.70;;;;;;5038729;28;20221;-83
2021/06/11 09:11:38;;;;;;;5.35;4.75;;;24.50;76.60;;;;;;5028560;28;21025;-83
2021/06/11 09:14:08;;;;;;;6.53;4.32;;;24.60;76.20;;;;;;5052158;28;20197;-82
2021/06/11 09:16:44;;;;;;;7.28;4.78;;;24.40;76.40;;;;;;5037878;28;20347;-83
2021/06/11 09:19:18;;;;;;;8.38;5.20;;;24.20;76.20;;;;;;5036304;28;20193;-82
2021/06/11 09:21:48;;;;;;;5.40;4.72;;;24.20;76.20;;;;;;5036583;28;20204;-86
2021/06/11 09:24:23;;;;;;;8.05;4.93;;;24.30;75.90;;;;;;5039191;28;20205;-81
2021/06/11 09:27:11;;;;;;;4.78;4.28;;;24.20;76.30;;;;;;5037481;28;20288;-82
2021/06/11 09:29:43;;;;;;;5.65;4.78;;;24.20;76.80;;;;;;5033871;28;20229;-82
2021/06/11 09:32:18;;;;;;;6.38;4.88;;;24.20;76.00;;;;;;5032451;28;20198;-83
2021/06/11 09:34:50;;;;;;;7.63;5.07;;;24.20;76.50;;;;;;5037248;28;20207;-83
2021/06/11 09:37:20;;;;;;;7.30;4.72;;;24.20;76.50;;;;;;5027350;28;21351;-83
2021/06/11 09:39:53;;;;;;;6.65;4.93;;;24.20;76.30;;;;;;5035059;28;20353;-84
2021/06/11 09:42:24;;;;;;;6.78;5.68;;;24.10;76.40;;;;;;5031222;28;20745;-83
2021/06/11 09:44:57;;;;;;;6.25;5.00;;;23.80;76.40;;;;;;5035893;28;20213;-83
2021/06/11 09:47:37;;;;;;;8.20;5.40;;;23.70;75.90;;;;;;5039323;28;20208;-82
2021/06/11 09:50:17;;;;;;;5.18;4.30;;;23.50;76.70;;;;;;5035011;28;20271;-82
2021/06/11 09:52:57;;;;;;;7.38;4.65;;;23.40;76.60;;;;;;5038357;28;20205;-83
2021/06/11 09:55:28;;;;;;;5.70;4.22;;;23.40;76.80;;;;;;5037111;28;20236;-84
2021/06/11 09:58:10;;;;;;;7.07;4.50;;;23.70;76.40;;;;;;5036029;28;20508;-83
2021/06/11 10:00:40;;;;;;;10.57;5.20;;;24.10;76.00;;;;;;5040554;28;20561;-83
2021/06/11 10:03:12;;;;;;;7.88;4.28;;;24.50;75.90;;;;;;5047132;28;20904;-83
2021/06/11 10:05:43;;;;;;;8.10;4.00;;;24.50;75.60;;;;;;5049326;28;20471;-81
2021/06/11 10:08:12;;;;;;;8.10;4.60;;;24.60;75.30;;;;;;5048261;28;20372;-85
2021/06/11 10:10:42;;;;;;;6.10;4.15;;;24.40;74.20;;;;;;5046730;28;20539;-82
2021/06/11 10:13:12;;;;;;;7.07;4.50;;;24.30;74.60;;;;;;5060128;28;20204;-84
2021/06/11 10:15:40;;;;;;;5.95;4.15;;;24.10;74.60;;;;;;5065390;28;20279;-85
2021/06/11 10:18:10;;;;;;;4.95;4.25;;;23.90;75.00;;;;;;5066518;28;20373;-82
2021/06/11 10:20:39;;;;;;;6.35;4.05;;;24.00;74.80;;;;;;5059430;28;20182;-82
2021/06/11 10:23:10;;;;;;;4.88;3.65;;;24.20;74.20;;;;;;5059032;28;20203;-84
2021/06/11 10:25:43;;;;;;;5.70;3.72;;;24.20;74.10;;;;;;5048354;28;20302;-81
2021/06/11 10:28:15;;;;;;;5.70;3.90;;;24.20;74.20;;;;;;5047715;28;20310;-84
2021/06/11 10:30:44;;;;;;;4.15;3.70;;;24.30;73.40;;;;;;5040382;28;22140;-83
2021/06/11 10:33:12;;;;;;;4.05;3.30;;;24.30;73.60;;;;;;5042268;28;20651;-83
2021/06/11 10:35:43;;;;;;;5.25;3.70;;;24.40;73.60;;;;;;5029288;28;20615;-81
2021/06/11 10:38:31;;;;;;;7.18;3.75;;;24.50;73.20;;;;;;5038148;28;21067;-82
2021/06/11 10:41:01;;;;;;;3.97;3.60;;;24.50;73.40;;;;;;5036991;28;20205;-81
2021/06/11 10:43:36;;;;;;;7.80;3.33;;;24.80;72.90;;;;;;5038551;28;20316;-80
2021/06/11 10:46:19;;;;;;;4.65;3.40;;;24.80;72.00;;;;;;5050826;28;20281;-82
2021/06/11 10:49:08;;;;;;;4.07;3.20;;;24.60;72.30;;;;;;5055045;28;20306;-83
2021/06/11 10:51:38;;;;;;;6.85;3.40;;;24.80;72.00;;;;;;5048380;28;20480;-83
2021/06/11 10:54:28;;;;;;;3.97;3.50;;;24.70;71.50;;;;;;5056550;28;20197;-81
2021/06/11 10:57:17;;;;;;;5.85;3.50;;;24.70;71.20;;;;;;5047293;28;20259;-83
2021/06/11 10:59:48;;;;;;;4.80;3.20;;;24.50;71.80;;;;;;5041934;28;20536;-82
2021/06/11 11:02:17;;;;;;;4.15;3.20;;;24.70;71.30;;;;;;5056312;28;20205;-82
2021/06/11 11:04:48;;;;;;;3.78;3.47;;;24.50;71.10;;;;;;5047602;28;20681;-82
2021/06/11 11:07:33;;;;;;;4.72;3.40;;;24.30;71.50;;;;;;5044332;28;20216;-80
2021/06/11 11:10:05;;;;;;;6.00;3.40;;;24.30;71.60;;;;;;5059547;28;20224;-83
2021/06/11 11:12:58;;;;;;;4.13;3.38;;;24.10;71.60;;;;;;5049808;28;20550;-84
2021/06/11 11:15:34;;;;;;;5.25;3.70;;;24.00;71.50;;;;;;5039209;28;20433;-82
2021/06/11 11:18:04;;;;;;;3.88;3.45;;;24.00;71.50;;;;;;5046749;28;20259;-83
2021/06/11 11:20:34;;;;;;;3.92;3.50;;;23.80;70.90;;;;;;5031463;28;20208;-85
2021/06/11 11:23:05;;;;;;;3.50;3.20;;;23.70;70.60;;;;;;5038795;28;20298;-81
2021/06/11 11:25:35;;;;;;;6.45;3.88;;;23.60;71.10;;;;;;5043911;28;20820;-86
2021/06/11 11:28:06;;;;;;;5.68;3.60;;;23.60;71.40;;;;;;5052395;28;20210;-85
2021/06/11 11:30:36;;;;;;;6.38;3.58;;;23.40;71.30;;;;;;5043675;28;20201;-84
2021/06/11 11:33:07;;;;;;;4.90;3.47;;;23.20;71.00;;;;;;5049150;28;20233;-85
2021/06/11 11:35:38;;;;;;;4.70;3.70;;;23.10;71.60;;;;;;5048907;28;20233;-85
2021/06/11 11:38:09;;;;;;;6.53;3.70;;;23.00;71.90;;;;;;5056555;28;20249;-84
2021/06/11 11:40:41;;;;;;;5.70;3.58;;;23.00;71.70;;;;;;5062516;28;20890;-86
2021/06/11 11:43:11;;;;;;;4.82;3.50;;;23.10;71.50;;;;;;5066145;28;20231;-84
2021/06/11 11:45:40;;;;;;;5.30;3.70;;;23.20;71.80;;;;;;5035981;28;20229;-83
2021/06/11 11:48:08;;;;;;;4.80;3.60;;;23.30;71.80;;;;;;5043732;28;20612;-84
2021/06/11 11:50:39;;;;;;;4.38;3.83;;;23.40;71.80;;;;;;5059991;28;20233;-84
2021/06/11 11:53:07;;;;;;;6.82;4.30;;;23.60;71.80;;;;;;5057576;28;20207;-83
2021/06/11 11:55:35;;;;;;;5.43;4.00;;;23.70;71.70;;;;;;5038185;28;20208;-83
2021/06/11 11:58:06;;;;;;;6.22;3.83;;;23.80;71.30;;;;;;5038790;28;20367;-84
2021/06/11 12:00:34;;;;;;;4.57;4.03;;;24.00;71.30;;;;;;5041604;28;20213;-82
2021/06/11 12:03:02;;;;;;;4.43;4.03;;;24.10;71.50;;;;;;5037081;28;20208;-84
2021/06/11 12:05:30;;;;;;;6.05;3.72;;;24.20;70.90;;;;;;5047485;28;20198;-85
2021/06/11 12:08:01;;;;;;;4.50;3.25;;;24.00;70.90;;;;;;5040701;28;20201;-84
2021/06/11 12:10:30;;;;;;;5.43;4.45;;;23.90;71.30;;;;;;5046771;28;20229;-82
2021/06/11 12:12:59;;;;;;;4.00;3.70;;;23.70;71.30;;;;;;5049134;28;20231;-82
2021/06/11 12:15:29;;;;;;;5.28;4.38;;;23.50;71.20;;;;;;5063734;28;20193;-83
2021/06/11 12:18:00;;;;;;;5.13;3.83;;;23.30;71.60;;;;;;5065067;28;20271;-86
2021/06/11 12:20:32;;;;;;;4.38;3.45;;;23.20;71.60;;;;;;5067861;28;20216;-83
2021/06/11 12:23:02;;;;;;;4.80;3.70;;;23.20;71.80;;;;;;5044969;28;20846;-84
2021/06/11 12:25:31;;;;;;;4.00;3.70;;;23.40;71.90;;;;;;5039124;28;20215;-85
2021/06/11 12:28:01;;;;;;;3.97;3.58;;;23.80;71.60;;;;;;5036599;28;20758;-84
2021/06/11 12:30:31;;;;;;;3.45;3.15;;;24.20;70.90;;;;;;5055118;28;20229;-82
2021/06/11 12:33:00;;;;;;;3.50;3.17;;;24.90;69.00;;;;;;5051854;28;20232;-85
2021/06/11 12:35:28;;;;;;;4.70;3.45;;;25.20;68.10;;;;;;5049605;28;20963;-85
2021/06/11 12:37:59;;;;;;;4.35;3.70;;;25.50;67.60;;;;;;5052729;28;20312;-83
2021/06/11 12:40:28;;;;;;;7.50;3.13;;;25.60;68.20;;;;;;5046654;28;20202;-84
2021/06/11 12:43:03;;;;;;;4.90;2.95;;;25.90;69.30;;;;;;5040858;28;20205;-81
2021/06/11 12:45:35;;;;;;;4.25;3.03;;;25.90;66.40;;;;;;5036766;28;20430;-83
2021/06/11 12:48:03;;;;;;;4.28;3.20;;;25.70;66.50;;;;;;5041570;28;20201;-85
2021/06/11 12:50:31;;;;;;;3.72;3.40;;;25.80;67.60;;;;;;5038759;28;20232;-84
2021/06/11 12:53:00;;;;;;;6.13;2.97;;;25.80;67.40;;;;;;5044485;28;20201;-82
2021/06/11 12:55:31;;;;;;;6.70;3.45;;;25.60;66.70;;;;;;5045027;28;21107;-82
2021/06/11 12:57:59;;;;;;;8.00;3.70;;;25.50;67.00;;;;;;5036914;28;20201;-83
2021/06/11 13:00:28;;;;;;;5.13;3.63;;;25.30;67.50;;;;;;5045637;28;20994;-82
2021/06/11 13:02:57;;;;;;;5.88;3.28;;;25.00;67.70;;;;;;5043248;28;20259;-83
2021/06/11 13:05:27;;;;;;;4.68;3.35;;;24.80;68.80;;;;;;5035709;28;20213;-82
2021/06/11 13:07:55;;;;;;;6.95;3.38;;;24.90;68.10;;;;;;5036754;28;20213;-83